sensor_id;sensor_type;location;lat;lon;timestamp;pressure;altitude;pressure_sealevel;temperature
22269;BMP280;11303;50.772;19.670;2023-09-19T00:00:42;98318.63;;;16.00
22269;BMP280;11303;50.772;19.670;2023-09-19T00:03:12;98311.94;;;15.95
22269;BMP280;11303;50.772;19.670;2023-09-19T00:05:13;98312.69;;;15.92
22269;BMP280;11303;50.772;19.670;2023-09-19T00:07:15;98308.97;;;15.89
22269;BMP280;11303;50.772;19.670;2023-09-19T00:09:17;98313.13;;;15.87
22269;BMP280;11303;50.772;19.670;2023-09-19T00:11:19;98313.13;;;15.87
22269;BMP280;11303;50.772;19.670;2023-09-19T00:13:21;98317.22;;;15.88
22269;BMP280;11303;50.772;19.670;2023-09-19T00:15:23;98310.06;;;15.92
22269;BMP280;11303;50.772;19.670;2023-09-19T00:17:24;98307.78;;;15.98
22269;BMP280;11303;50.772;19.670;2023-09-19T00:19:26;98303.63;;;16.04
22269;BMP280;11303;50.772;19.670;2023-09-19T00:21:28;98302.81;;;16.10
22269;BMP280;11303;50.772;19.670;2023-09-19T00:23:29;98305.00;;;16.16
22269;BMP280;11303;50.772;19.670;2023-09-19T00:25:32;98306.09;;;16.22
22269;BMP280;11303;50.772;19.670;2023-09-19T00:27:39;98297.81;;;16.27
22269;BMP280;11303;50.772;19.670;2023-09-19T00:29:41;98298.19;;;16.29
22269;BMP280;11303;50.772;19.670;2023-09-19T00:31:43;98295.94;;;16.27
22269;BMP280;11303;50.772;19.670;2023-09-19T00:33:45;98290.72;;;16.24
22269;BMP280;11303;50.772;19.670;2023-09-19T00:35:52;98282.50;;;16.22
22269;BMP280;11303;50.772;19.670;2023-09-19T00:37:55;98278.00;;;16.19
22269;BMP280;11303;50.772;19.670;2023-09-19T00:39:57;98280.31;;;16.17
22269;BMP280;11303;50.772;19.670;2023-09-19T00:41:58;98269.09;;;16.13
22269;BMP280;11303;50.772;19.670;2023-09-19T00:44:06;98283.72;;;16.10
22269;BMP280;11303;50.772;19.670;2023-09-19T00:46:08;98276.66;;;16.03
22269;BMP280;11303;50.772;19.670;2023-09-19T00:48:10;98276.75;;;15.96
22269;BMP280;11303;50.772;19.670;2023-09-19T00:50:12;98277.13;;;15.91
22269;BMP280;11303;50.772;19.670;2023-09-19T00:52:16;98262.97;;;15.81
22269;BMP280;11303;50.772;19.670;2023-09-19T00:54:21;98267.91;;;15.76
22269;BMP280;11303;50.772;19.670;2023-09-19T00:56:23;98256.34;;;15.73
22269;BMP280;11303;50.772;19.670;2023-09-19T00:58:25;98260.84;;;15.73
22269;BMP280;11303;50.772;19.670;2023-09-19T01:00:28;98254.09;;;15.72
22269;BMP280;11303;50.772;19.670;2023-09-19T01:02:31;98249.22;;;15.70
22269;BMP280;11303;50.772;19.670;2023-09-19T01:04:33;98249.59;;;15.68
22269;BMP280;11303;50.772;19.670;2023-09-19T01:06:36;98249.59;;;15.68
22269;BMP280;11303;50.772;19.670;2023-09-19T01:08:38;98257.44;;;15.72
22269;BMP280;11303;50.772;19.670;2023-09-19T01:10:54;98250.66;;;15.78
22269;BMP280;11303;50.772;19.670;2023-09-19T01:13:12;98250.63;;;15.82
22269;BMP280;11303;50.772;19.670;2023-09-19T01:18:00;98244.22;;;15.90
22269;BMP280;11303;50.772;19.670;2023-09-19T01:20:11;98244.91;;;15.94
22269;BMP280;11303;50.772;19.670;2023-09-19T01:27:03;98233.63;;;16.01
22269;BMP280;11303;50.772;19.670;2023-09-19T01:29:39;98232.53;;;15.98
22269;BMP280;11303;50.772;19.670;2023-09-19T01:31:42;98231.78;;;15.98
22269;BMP280;11303;50.772;19.670;2023-09-19T01:34:01;98229.13;;;16.01
22269;BMP280;11303;50.772;19.670;2023-09-19T01:36:05;98226.84;;;16.07
22269;BMP280;11303;50.772;19.670;2023-09-19T01:38:08;98231.31;;;16.10
22269;BMP280;11303;50.772;19.670;2023-09-19T01:40:15;98228.97;;;16.16
22269;BMP280;11303;50.772;19.670;2023-09-19T01:42:35;98230.81;;;16.22
22269;BMP280;11303;50.772;19.670;2023-09-19T01:46:49;98214.19;;;16.33
22269;BMP280;11303;50.772;19.670;2023-09-19T01:51:07;98223.47;;;16.41
22269;BMP280;11303;50.772;19.670;2023-09-19T01:53:26;98216.72;;;16.43
22269;BMP280;11303;50.772;19.670;2023-09-19T01:55:30;98211.44;;;16.47
22269;BMP280;11303;50.772;19.670;2023-09-19T01:57:42;98223.00;;;16.49
22269;BMP280;11303;50.772;19.670;2023-09-19T01:59:53;98219.25;;;16.50
22269;BMP280;11303;50.772;19.670;2023-09-19T02:01:55;98219.25;;;16.50
22269;BMP280;11303;50.772;19.670;2023-09-19T02:03:58;98217.03;;;16.49
22269;BMP280;11303;50.772;19.670;2023-09-19T02:06:00;98214.78;;;16.47
22269;BMP280;11303;50.772;19.670;2023-09-19T02:08:02;98212.16;;;16.47
22269;BMP280;11303;50.772;19.670;2023-09-19T02:10:07;98215.13;;;16.49
22269;BMP280;11303;50.772;19.670;2023-09-19T02:12:11;98206.16;;;16.50
22269;BMP280;11303;50.772;19.670;2023-09-19T02:14:13;98213.59;;;16.52
22269;BMP280;11303;50.772;19.670;2023-09-19T02:16:16;98208.72;;;16.54
22269;BMP280;11303;50.772;19.670;2023-09-19T02:18:18;98206.44;;;16.56
22269;BMP280;11303;50.772;19.670;2023-09-19T02:20:20;98210.16;;;16.59
22269;BMP280;11303;50.772;19.670;2023-09-19T02:22:22;98211.66;;;16.60
22269;BMP280;11303;50.772;19.670;2023-09-19T02:24:24;98208.63;;;16.61
22269;BMP280;11303;50.772;19.670;2023-09-19T02:26:28;98214.97;;;16.64
22269;BMP280;11303;50.772;19.670;2023-09-19T02:28:29;98207.84;;;16.64
22269;BMP280;11303;50.772;19.670;2023-09-19T02:30:33;98205.56;;;16.66
22269;BMP280;11303;50.772;19.670;2023-09-19T02:32:35;98202.16;;;16.69
22269;BMP280;11303;50.772;19.670;2023-09-19T02:34:38;98207.00;;;16.71
22269;BMP280;11303;50.772;19.670;2023-09-19T02:36:40;98204.34;;;16.75
22269;BMP280;11303;50.772;19.670;2023-09-19T02:38:42;98206.19;;;16.78
22269;BMP280;11303;50.772;19.670;2023-09-19T02:40:43;98209.16;;;16.80
22269;BMP280;11303;50.772;19.670;2023-09-19T02:42:47;98209.88;;;16.80
22269;BMP280;11303;50.772;19.670;2023-09-19T02:44:51;98209.50;;;16.82
22269;BMP280;11303;50.772;19.670;2023-09-19T02:46:52;98208.75;;;16.81
22269;BMP280;11303;50.772;19.670;2023-09-19T02:48:54;98203.53;;;16.81
22269;BMP280;11303;50.772;19.670;2023-09-19T02:50:56;98206.47;;;16.83
22269;BMP280;11303;50.772;19.670;2023-09-19T02:52:58;98203.84;;;16.83
22269;BMP280;11303;50.772;19.670;2023-09-19T02:55:00;98201.22;;;16.83
22269;BMP280;11303;50.772;19.670;2023-09-19T02:57:02;98201.63;;;16.82
22269;BMP280;11303;50.772;19.670;2023-09-19T02:59:05;98206.47;;;16.83
22269;BMP280;11303;50.772;19.670;2023-09-19T03:01:08;98201.22;;;16.83
22269;BMP280;11303;50.772;19.670;2023-09-19T03:03:11;98204.25;;;16.82
22269;BMP280;11303;50.772;19.670;2023-09-19T03:05:13;98195.22;;;16.83
22269;BMP280;11303;50.772;19.670;2023-09-19T03:07:15;98194.84;;;16.84
22269;BMP280;11303;50.772;19.670;2023-09-19T03:09:16;98192.94;;;16.85
22269;BMP280;11303;50.772;19.670;2023-09-19T03:11:18;98185.06;;;16.85
22269;BMP280;11303;50.772;19.670;2023-09-19T03:13:24;98184.34;;;16.84
22269;BMP280;11303;50.772;19.670;2023-09-19T03:15:26;98186.22;;;16.84
22269;BMP280;11303;50.772;19.670;2023-09-19T03:17:27;98184.69;;;16.86
22269;BMP280;11303;50.772;19.670;2023-09-19T03:19:30;98183.22;;;16.85
22269;BMP280;11303;50.772;19.670;2023-09-19T03:21:31;98185.47;;;16.87
22269;BMP280;11303;50.772;19.670;2023-09-19T03:23:33;98182.81;;;16.87
22269;BMP280;11303;50.772;19.670;2023-09-19T03:25:35;98179.44;;;16.86
22269;BMP280;11303;50.772;19.670;2023-09-19T03:27:40;98183.56;;;16.87
22269;BMP280;11303;50.772;19.670;2023-09-19T03:29:42;98175.69;;;16.87
22269;BMP280;11303;50.772;19.670;2023-09-19T03:31:44;98175.69;;;16.87
22269;BMP280;11303;50.772;19.670;2023-09-19T03:33:47;98171.91;;;16.88
22269;BMP280;11303;50.772;19.670;2023-09-19T03:35:52;98170.44;;;16.87
22269;BMP280;11303;50.772;19.670;2023-09-19T03:37:55;98171.91;;;16.88
22269;BMP280;11303;50.772;19.670;2023-09-19T03:39:57;98173.38;;;16.89
22269;BMP280;11303;50.772;19.670;2023-09-19T03:41:58;98176.78;;;16.90
22269;BMP280;11303;50.772;19.670;2023-09-19T03:44:00;98176.38;;;16.91
22269;BMP280;11303;50.772;19.670;2023-09-19T03:46:02;98176.38;;;16.91
22269;BMP280;11303;50.772;19.670;2023-09-19T03:48:08;98170.34;;;16.95
22269;BMP280;11303;50.772;19.670;2023-09-19T03:50:11;98175.94;;;16.97
22269;BMP280;11303;50.772;19.670;2023-09-19T03:52:12;98173.31;;;16.97
22269;BMP280;11303;50.772;19.670;2023-09-19T03:54:14;98167.31;;;16.96
22269;BMP280;11303;50.772;19.670;2023-09-19T03:56:17;98172.56;;;16.96
22269;BMP280;11303;50.772;19.670;2023-09-19T03:58:19;98170.00;;;16.92
22269;BMP280;11303;50.772;19.670;2023-09-19T04:00:22;98156.91;;;16.89
22269;BMP280;11303;50.772;19.670;2023-09-19T04:02:25;98169.72;;;16.83
22269;BMP280;11303;50.772;19.670;2023-09-19T04:04:27;98170.19;;;16.78
22269;BMP280;11303;50.772;19.670;2023-09-19T04:06:30;98162.78;;;16.69
22269;BMP280;11303;50.772;19.670;2023-09-19T04:08:32;98171.84;;;16.65
22269;BMP280;11303;50.772;19.670;2023-09-19T04:10:34;98171.59;;;16.56
22269;BMP280;11303;50.772;19.670;2023-09-19T04:12:35;98164.31;;;16.40
22269;BMP280;11303;50.772;19.670;2023-09-19T04:14:37;98167.38;;;16.31
22269;BMP280;11303;50.772;19.670;2023-09-19T04:16:39;98169.72;;;16.25
22269;BMP280;11303;50.772;19.670;2023-09-19T04:18:41;98167.47;;;16.24
22269;BMP280;11303;50.772;19.670;2023-09-19T04:20:50;98167.81;;;16.26
22269;BMP280;11303;50.772;19.670;2023-09-19T04:22:52;98175.31;;;16.27
22269;BMP280;11303;50.772;19.670;2023-09-19T04:24:54;98166.66;;;16.30
22269;BMP280;11303;50.772;19.670;2023-09-19T04:26:55;98167.34;;;16.35
22269;BMP280;11303;50.772;19.670;2023-09-19T04:28:58;98164.69;;;16.38
22269;BMP280;11303;50.772;19.670;2023-09-19T04:31:00;98162.81;;;16.39
22269;BMP280;11303;50.772;19.670;2023-09-19T04:33:02;98163.56;;;16.39
22269;BMP280;11303;50.772;19.670;2023-09-19T04:35:08;98159.78;;;16.40
22269;BMP280;11303;50.772;19.670;2023-09-19T04:37:10;98160.88;;;16.43
22269;BMP280;11303;50.772;19.670;2023-09-19T04:39:12;98161.63;;;16.43
22269;BMP280;11303;50.772;19.670;2023-09-19T04:41:14;98159.75;;;16.44
22269;BMP280;11303;50.772;19.670;2023-09-19T04:43:17;98161.25;;;16.45
22269;BMP280;11303;50.772;19.670;2023-09-19T04:45:18;98155.59;;;16.46
22269;BMP280;11303;50.772;19.670;2023-09-19T04:47:21;98155.59;;;16.46
22269;BMP280;11303;50.772;19.670;2023-09-19T04:49:23;98158.22;;;16.46
22269;BMP280;11303;50.772;19.670;2023-09-19T04:51:25;98154.47;;;16.47
22269;BMP280;11303;50.772;19.670;2023-09-19T04:53:30;98152.19;;;16.49
22269;BMP280;11303;50.772;19.670;2023-09-19T04:55:32;98160.41;;;16.51
22269;BMP280;11303;50.772;19.670;2023-09-19T04:57:34;98155.50;;;16.54
22269;BMP280;11303;50.772;19.670;2023-09-19T04:59:38;98147.25;;;16.55
22269;BMP280;11303;50.772;19.670;2023-09-19T05:01:42;98144.56;;;16.59
22269;BMP280;11303;50.772;19.670;2023-09-19T05:03:43;98149.00;;;16.62
22269;BMP280;11303;50.772;19.670;2023-09-19T05:05:46;98149.75;;;16.66
22269;BMP280;11303;50.772;19.670;2023-09-19T05:07:48;98148.59;;;16.67
22269;BMP280;11303;50.772;19.670;2023-09-19T05:09:50;98145.19;;;16.70
22269;BMP280;11303;50.772;19.670;2023-09-19T05:11:51;98145.09;;;16.77
22269;BMP280;11303;50.772;19.670;2023-09-19T05:13:54;98148.41;;;16.81
22269;BMP280;11303;50.772;19.670;2023-09-19T05:16:00;98147.94;;;16.86
22269;BMP280;11303;50.772;19.670;2023-09-19T05:18:03;98150.53;;;16.90
22269;BMP280;11303;50.772;19.670;2023-09-19T05:20:05;98153.88;;;16.90
22269;BMP280;11303;50.772;19.670;2023-09-19T05:22:18;98159.88;;;16.91
22269;BMP280;11303;50.772;19.670;2023-09-19T05:24:20;98159.88;;;16.91
22269;BMP280;11303;50.772;19.670;2023-09-19T05:26:24;98152.34;;;16.93
22269;BMP280;11303;50.772;19.670;2023-09-19T05:28:26;98160.63;;;16.91
22269;BMP280;11303;50.772;19.670;2023-09-19T05:30:28;98164.00;;;16.92
22269;BMP280;11303;50.772;19.670;2023-09-19T05:32:30;98170.72;;;16.93
22269;BMP280;11303;50.772;19.670;2023-09-19T05:34:32;98170.00;;;16.92
22269;BMP280;11303;50.772;19.670;2023-09-19T05:36:33;98183.84;;;16.93
22269;BMP280;11303;50.772;19.670;2023-09-19T05:38:35;98181.63;;;16.91
22269;BMP280;11303;50.772;19.670;2023-09-19T05:40:37;98180.50;;;16.92
22269;BMP280;11303;50.772;19.670;2023-09-19T05:42:40;98183.47;;;16.95
22269;BMP280;11303;50.772;19.670;2023-09-19T05:44:42;98183.47;;;16.95
22269;BMP280;11303;50.772;19.670;2023-09-19T05:46:44;98183.06;;;16.96
22269;BMP280;11303;50.772;19.670;2023-09-19T05:48:47;98171.81;;;16.96
22269;BMP280;11303;50.772;19.670;2023-09-19T05:50:49;98190.56;;;16.98
22269;BMP280;11303;50.772;19.670;2023-09-19T05:52:52;98195.81;;;16.94
22269;BMP280;11303;50.772;19.670;2023-09-19T05:54:54;98192.16;;;16.88
22269;BMP280;11303;50.772;19.670;2023-09-19T05:56:57;98193.00;;;16.81
22269;BMP280;11303;50.772;19.670;2023-09-19T05:58:59;98191.91;;;16.79
22269;BMP280;11303;50.772;19.670;2023-09-19T06:01:01;98194.53;;;16.79
22269;BMP280;11303;50.772;19.670;2023-09-19T06:03:03;98200.53;;;16.79
22269;BMP280;11303;50.772;19.670;2023-09-19T06:05:06;98205.78;;;16.79
22269;BMP280;11303;50.772;19.670;2023-09-19T06:07:08;98219.25;;;16.81
22269;BMP280;11303;50.772;19.670;2023-09-19T06:09:09;98205.34;;;16.84
22269;BMP280;11303;50.772;19.670;2023-09-19T06:11:11;98211.69;;;16.87
22269;BMP280;11303;50.772;19.670;2023-09-19T06:13:13;98206.03;;;16.88
22269;BMP280;11303;50.772;19.670;2023-09-19T06:15:15;98207.88;;;16.91
22269;BMP280;11303;50.772;19.670;2023-09-19T06:17:17;98217.19;;;16.96
22269;BMP280;11303;50.772;19.670;2023-09-19T06:19:21;98215.25;;;17.00
22269;BMP280;11303;50.772;19.670;2023-09-19T06:21:24;98217.84;;;17.04
22269;BMP280;11303;50.772;19.670;2023-09-19T06:23:26;98218.19;;;17.06
22269;BMP280;11303;50.772;19.670;2023-09-19T06:25:30;98227.88;;;17.09
22269;BMP280;11303;50.772;19.670;2023-09-19T06:27:32;98219.63;;;17.10
22269;BMP280;11303;50.772;19.670;2023-09-19T06:29:33;98223.72;;;17.11
22269;BMP280;11303;50.772;19.670;2023-09-19T06:31:35;98220.34;;;17.11
22269;BMP280;11303;50.772;19.670;2023-09-19T06:33:37;98225.97;;;17.09
22269;BMP280;11303;50.772;19.670;2023-09-19T06:35:42;98238.72;;;17.11
22269;BMP280;11303;50.772;19.670;2023-09-19T06:37:45;98235.72;;;17.12
22269;BMP280;11303;50.772;19.670;2023-09-19T06:39:46;98237.53;;;17.16
22269;BMP280;11303;50.772;19.670;2023-09-19T06:41:50;98239.03;;;17.17
22269;BMP280;11303;50.772;19.670;2023-09-19T06:43:54;98241.28;;;17.18
22269;BMP280;11303;50.772;19.670;2023-09-19T06:45:56;98239.38;;;17.19
22269;BMP280;11303;50.772;19.670;2023-09-19T06:47:59;98245.72;;;17.21
22269;BMP280;11303;50.772;19.670;2023-09-19T06:50:02;98247.19;;;17.22
22269;BMP280;11303;50.772;19.670;2023-09-19T06:52:04;98248.28;;;17.25
22269;BMP280;11303;50.772;19.670;2023-09-19T06:54:06;98256.91;;;17.25
22269;BMP280;11303;50.772;19.670;2023-09-19T06:56:07;98257.31;;;17.24
22269;BMP280;11303;50.772;19.670;2023-09-19T06:58:09;98262.22;;;17.22
22269;BMP280;11303;50.772;19.670;2023-09-19T07:00:13;98265.19;;;17.24
22269;BMP280;11303;50.772;19.670;2023-09-19T07:02:19;98264.38;;;17.27
22269;BMP280;11303;50.772;19.670;2023-09-19T07:04:23;98269.63;;;17.27
22269;BMP280;11303;50.772;19.670;2023-09-19T07:06:25;98272.66;;;17.25
22269;BMP280;11303;50.772;19.670;2023-09-19T07:08:27;98279.47;;;17.23
22269;BMP280;11303;50.772;19.670;2023-09-19T07:10:30;98271.28;;;17.17
22269;BMP280;11303;50.772;19.670;2023-09-19T07:12:32;98270.16;;;17.14
22269;BMP280;11303;50.772;19.670;2023-09-19T07:14:36;98266.06;;;17.13
22269;BMP280;11303;50.772;19.670;2023-09-19T07:16:38;98277.00;;;17.12
22269;BMP280;11303;50.772;19.670;2023-09-19T07:18:40;98281.94;;;17.06
22269;BMP280;11303;50.772;19.670;2023-09-19T07:20:45;98280.44;;;17.05
22269;BMP280;11303;50.772;19.670;2023-09-19T07:22:51;98279.69;;;17.05
22269;BMP280;11303;50.772;19.670;2023-09-19T07:24:52;98281.19;;;17.06
22269;BMP280;11303;50.772;19.670;2023-09-19T07:26:54;98283.81;;;17.06
22269;BMP280;11303;50.772;19.670;2023-09-19T07:28:55;98291.34;;;17.04
22269;BMP280;11303;50.772;19.670;2023-09-19T07:31:02;98284.69;;;16.96
22269;BMP280;11303;50.772;19.670;2023-09-19T07:33:05;98289.25;;;16.91
22269;BMP280;11303;50.772;19.670;2023-09-19T07:35:07;98290.03;;;16.88
22269;BMP280;11303;50.772;19.670;2023-09-19T07:37:11;98295.31;;;16.85
22269;BMP280;11303;50.772;19.670;2023-09-19T07:39:14;98306.19;;;16.83
22269;BMP280;11303;50.772;19.670;2023-09-19T07:41:24;98315.97;;;16.83
22269;BMP280;11303;50.772;19.670;2023-09-19T07:43:27;98308.81;;;16.83
22269;BMP280;11303;50.772;19.670;2023-09-19T07:45:29;98313.00;;;16.81
22269;BMP280;11303;50.772;19.670;2023-09-19T07:47:31;98320.50;;;16.82
22269;BMP280;11303;50.772;19.670;2023-09-19T07:49:34;98322.69;;;16.87
22269;BMP280;11303;50.772;19.670;2023-09-19T07:51:35;98324.50;;;16.90
22269;BMP280;11303;50.772;19.670;2023-09-19T07:53:37;98327.94;;;16.87
22269;BMP280;11303;50.772;19.670;2023-09-19T07:55:39;98337.69;;;16.83
22269;BMP280;11303;50.772;19.670;2023-09-19T07:57:43;98334.81;;;16.74
22269;BMP280;11303;50.772;19.670;2023-09-19T07:59:45;98337.88;;;16.69
22269;BMP280;11303;50.772;19.670;2023-09-19T08:01:47;98340.50;;;16.69
22269;BMP280;11303;50.772;19.670;2023-09-19T08:03:50;98342.72;;;16.70
22269;BMP280;11303;50.772;19.670;2023-09-19T08:05:51;98349.47;;;16.68
22269;BMP280;11303;50.772;19.670;2023-09-19T08:07:53;98358.13;;;16.68
22269;BMP280;11303;50.772;19.670;2023-09-19T08:09:58;98355.84;;;16.70
22269;BMP280;11303;50.772;19.670;2023-09-19T08:12:00;98343.44;;;16.75
22269;BMP280;11303;50.772;19.670;2023-09-19T08:14:06;98356.19;;;16.76
22269;BMP280;11303;50.772;19.670;2023-09-19T08:16:10;98355.03;;;16.77
22269;BMP280;11303;50.772;19.670;2023-09-19T08:18:12;98359.94;;;16.75
22269;BMP280;11303;50.772;19.670;2023-09-19T08:20:14;98361.03;;;16.74
22269;BMP280;11303;50.772;19.670;2023-09-19T08:22:21;98366.28;;;16.74
22269;BMP280;11303;50.772;19.670;2023-09-19T08:24:29;98361.38;;;16.80
22269;BMP280;11303;50.772;19.670;2023-09-19T08:26:31;98373.66;;;16.86
22269;BMP280;11303;50.772;19.670;2023-09-19T08:28:36;98370.63;;;16.91
22269;BMP280;11303;50.772;19.670;2023-09-19T08:30:38;98372.84;;;16.93
22269;BMP280;11303;50.772;19.670;2023-09-19T08:32:42;98370.19;;;16.97
22269;BMP280;11303;50.772;19.670;2023-09-19T08:34:47;98365.22;;;17.06
22269;BMP280;11303;50.772;19.670;2023-09-19T08:36:53;98376.78;;;17.12
22269;BMP280;11303;50.772;19.670;2023-09-19T08:38:58;98380.78;;;17.20
22269;BMP280;11303;50.772;19.670;2023-09-19T08:41:00;98385.16;;;17.30
22269;BMP280;11303;50.772;19.670;2023-09-19T08:43:02;98384.97;;;17.45
22269;BMP280;11303;50.772;19.670;2023-09-19T08:45:04;98386.75;;;17.51
22269;BMP280;11303;50.772;19.670;2023-09-19T08:47:11;98393.78;;;17.62
22269;BMP280;11303;50.772;19.670;2023-09-19T08:49:35;98392.88;;;17.72
22269;BMP280;11303;50.772;19.670;2023-09-19T08:51:43;98398.28;;;17.88
22269;BMP280;11303;50.772;19.670;2023-09-19T08:54:07;98403.03;;;17.97
22269;BMP280;11303;50.772;19.670;2023-09-19T08:56:11;98402.06;;;18.11
22269;BMP280;11303;50.772;19.670;2023-09-19T08:58:14;98397.91;;;18.13
22269;BMP280;11303;50.772;19.670;2023-09-19T09:00:22;98402.28;;;18.20
22269;BMP280;11303;50.772;19.670;2023-09-19T09:02:24;98413.03;;;18.29
22269;BMP280;11303;50.772;19.670;2023-09-19T09:04:26;98415.16;;;18.38
22269;BMP280;11303;50.772;19.670;2023-09-19T09:06:29;98410.50;;;18.46
22269;BMP280;11303;50.772;19.670;2023-09-19T09:08:31;98415.72;;;18.49
22269;BMP280;11303;50.772;19.670;2023-09-19T09:10:33;98420.63;;;18.47
22269;BMP280;11303;50.772;19.670;2023-09-19T09:12:35;98428.53;;;18.47
22269;BMP280;11303;50.772;19.670;2023-09-19T09:14:45;98427.84;;;18.43
22269;BMP280;11303;50.772;19.670;2023-09-19T09:16:51;98437.69;;;18.39
22269;BMP280;11303;50.772;19.670;2023-09-19T09:18:53;98428.13;;;18.25
22269;BMP280;11303;50.772;19.670;2023-09-19T09:20:56;98433.56;;;18.14
22269;BMP280;11303;50.772;19.670;2023-09-19T09:22:58;98435.56;;;18.07
22269;BMP280;11303;50.772;19.670;2023-09-19T09:25:05;98443.56;;;18.00
22269;BMP280;11303;50.772;19.670;2023-09-19T09:27:06;98441.78;;;17.93
22269;BMP280;11303;50.772;19.670;2023-09-19T09:29:11;98437.44;;;17.83
22269;BMP280;11303;50.772;19.670;2023-09-19T09:31:23;98453.59;;;17.81
22269;BMP280;11303;50.772;19.670;2023-09-19T09:33:25;98448.72;;;17.80
22269;BMP280;11303;50.772;19.670;2023-09-19T09:35:27;98444.63;;;17.79
22269;BMP280;11303;50.772;19.670;2023-09-19T09:37:28;98441.97;;;17.79
22269;BMP280;11303;50.772;19.670;2023-09-19T09:39:32;98445.06;;;17.73
22269;BMP280;11303;50.772;19.670;2023-09-19T09:41:36;98445.50;;;17.68
22269;BMP280;11303;50.772;19.670;2023-09-19T09:43:39;98454.16;;;17.65
22269;BMP280;11303;50.772;19.670;2023-09-19T09:45:42;98455.34;;;17.61
22269;BMP280;11303;50.772;19.670;2023-09-19T09:47:49;98450.94;;;17.54
22269;BMP280;11303;50.772;19.670;2023-09-19T09:49:55;98458.50;;;17.48
22269;BMP280;11303;50.772;19.670;2023-09-19T09:52:09;98449.94;;;17.44
22269;BMP280;11303;50.772;19.670;2023-09-19T09:54:19;98455.59;;;17.43
22269;BMP280;11303;50.772;19.670;2023-09-19T09:56:22;98448.09;;;17.41
22269;BMP280;11303;50.772;19.670;2023-09-19T09:58:24;98452.19;;;17.42
22269;BMP280;11303;50.772;19.670;2023-09-19T10:00:30;98449.56;;;17.42
22269;BMP280;11303;50.772;19.670;2023-09-19T10:02:43;98449.94;;;17.44
22269;BMP280;11303;50.772;19.670;2023-09-19T10:04:48;98452.50;;;17.48
22269;BMP280;11303;50.772;19.670;2023-09-19T10:06:53;98455.84;;;17.52
22269;BMP280;11303;50.772;19.670;2023-09-19T10:08:59;98454.69;;;17.53
22269;BMP280;11303;50.772;19.670;2023-09-19T10:11:16;98450.97;;;17.50
22269;BMP280;11303;50.772;19.670;2023-09-19T10:13:20;98453.63;;;17.47
22269;BMP280;11303;50.772;19.670;2023-09-19T10:15:26;98454.34;;;17.51
22269;BMP280;11303;50.772;19.670;2023-09-19T10:17:34;98452.06;;;17.53
22269;BMP280;11303;50.772;19.670;2023-09-19T10:19:37;98449.44;;;17.53
22269;BMP280;11303;50.772;19.670;2023-09-19T10:21:46;98449.03;;;17.54
22269;BMP280;11303;50.772;19.670;2023-09-19T10:23:50;98450.50;;;17.59
22269;BMP280;11303;50.772;19.670;2023-09-19T10:25:53;98450.78;;;17.65
22269;BMP280;11303;50.772;19.670;2023-09-19T10:28:00;98456.34;;;17.70
22269;BMP280;11303;50.772;19.670;2023-09-19T10:30:07;98446.59;;;17.71
22269;BMP280;11303;50.772;19.670;2023-09-19T10:32:11;98446.94;;;17.73
22269;BMP280;11303;50.772;19.670;2023-09-19T10:34:21;98454.41;;;17.74
22269;BMP280;11303;50.772;19.670;2023-09-19T10:36:24;98458.50;;;17.79
22269;BMP280;11303;50.772;19.670;2023-09-19T10:38:27;98452.44;;;17.82
22269;BMP280;11303;50.772;19.670;2023-09-19T10:40:32;98450.91;;;17.85
22269;BMP280;11303;50.772;19.670;2023-09-19T10:42:37;98454.63;;;17.87
22269;BMP280;11303;50.772;19.670;2023-09-19T10:44:41;98450.81;;;17.92
22269;BMP280;11303;50.772;19.670;2023-09-19T10:46:44;98451.88;;;17.94
22269;BMP280;11303;50.772;19.670;2023-09-19T10:48:46;98452.63;;;17.95
22269;BMP280;11303;50.772;19.670;2023-09-19T10:53:05;98460.81;;;18.01
22269;BMP280;11303;50.772;19.670;2023-09-19T10:55:16;98458.50;;;18.06
22269;BMP280;11303;50.772;19.670;2023-09-19T10:57:21;98455.78;;;18.10
22269;BMP280;11303;50.772;19.670;2023-09-19T10:59:25;98462.09;;;18.16
22269;BMP280;11303;50.772;19.670;2023-09-19T11:01:42;98466.16;;;18.21
22269;BMP280;11303;50.772;19.670;2023-09-19T11:03:44;98462.41;;;18.22
22269;BMP280;11303;50.772;19.670;2023-09-19T11:08:09;98467.91;;;18.31
22269;BMP280;11303;50.772;19.670;2023-09-19T11:10:44;98468.50;;;18.38
22269;BMP280;11303;50.772;19.670;2023-09-19T11:12:48;98466.97;;;18.41
22269;BMP280;11303;50.772;19.670;2023-09-19T11:14:50;98470.97;;;18.49
22269;BMP280;11303;50.772;19.670;2023-09-19T11:19:17;98468.44;;;18.66
22269;BMP280;11303;50.772;19.670;2023-09-19T11:23:32;98465.44;;;18.87
22269;BMP280;11303;50.772;19.670;2023-09-19T11:25:41;98460.75;;;18.95
22269;BMP280;11303;50.772;19.670;2023-09-19T11:30:25;98467.84;;;19.18
22269;BMP280;11303;50.772;19.670;2023-09-19T11:35:07;98475.75;;;19.38
22269;BMP280;11303;50.772;19.670;2023-09-19T11:39:25;98473.16;;;19.54
22269;BMP280;11303;50.772;19.670;2023-09-19T11:41:38;98477.22;;;19.59
22269;BMP280;11303;50.772;19.670;2023-09-19T11:43:40;98475.41;;;19.56
22269;BMP280;11303;50.772;19.670;2023-09-19T11:47:59;98476.81;;;19.60
22269;BMP280;11303;50.772;19.670;2023-09-19T11:50:04;98480.94;;;19.61
22269;BMP280;11303;50.772;19.670;2023-09-19T11:52:07;98482.41;;;19.62
22269;BMP280;11303;50.772;19.670;2023-09-19T11:54:13;98477.16;;;19.62
22269;BMP280;11303;50.772;19.670;2023-09-19T11:56:26;98483.97;;;19.60
22269;BMP280;11303;50.772;19.670;2023-09-19T11:58:33;98491.75;;;19.67
22269;BMP280;11303;50.772;19.670;2023-09-19T12:00:38;98494.22;;;19.74
22269;BMP280;11303;50.772;19.670;2023-09-19T12:02:47;98490.56;;;19.68
22269;BMP280;11303;50.772;19.670;2023-09-19T12:04:53;98487.69;;;19.62
22269;BMP280;11303;50.772;19.670;2023-09-19T12:06:58;98481.59;;;19.49
22269;BMP280;11303;50.772;19.670;2023-09-19T12:09:00;98506.34;;;19.35
22269;BMP280;11303;50.772;19.670;2023-09-19T12:11:04;98495.59;;;19.26
22269;BMP280;11303;50.772;19.670;2023-09-19T12:13:06;98498.81;;;19.14
22269;BMP280;11303;50.772;19.670;2023-09-19T12:15:08;98509.16;;;19.05